sensor_id;sensor_type;location;lat;lon;timestamp;P1;durP1;ratioP1;P2;durP2;ratioP2
7669;SDS011;3877;42.562;27.636;2023-02-05T00:01:14;1.97;;;1.80;;
7669;SDS011;3877;42.562;27.636;2023-02-05T00:03:41;3.57;;;1.60;;
7669;SDS011;3877;42.562;27.636;2023-02-05T00:06:08;1.30;;;1.20;;
7669;SDS011;3877;42.562;27.636;2023-02-05T00:08:35;2.43;;;1.70;;
7669;SDS011;3877;42.562;27.636;2023-02-05T00:11:02;2.10;;;1.90;;
7669;SDS011;3877;42.562;27.636;2023-02-05T00:13:35;2.23;;;1.87;;
7669;SDS011;3877;42.562;27.636;2023-02-05T00:16:05;1.70;;;1.60;;
7669;SDS011;3877;42.562;27.636;2023-02-05T00:18:32;4.33;;;2.20;;
7669;SDS011;3877;42.562;27.636;2023-02-05T00:20:59;3.43;;;2.10;;
7669;SDS011;3877;42.562;27.636;2023-02-05T00:23:25;2.20;;;2.00;;
7669;SDS011;3877;42.562;27.636;2023-02-05T00:25:52;2.00;;;1.80;;
7669;SDS011;3877;42.562;27.636;2023-02-05T00:28:19;2.37;;;2.10;;
7669;SDS011;3877;42.562;27.636;2023-02-05T00:30:47;3.80;;;2.47;;
7669;SDS011;3877;42.562;27.636;2023-02-05T00:33:14;2.83;;;2.23;;
7669;SDS011;3877;42.562;27.636;2023-02-05T00:35:41;2.33;;;2.00;;
7669;SDS011;3877;42.562;27.636;2023-02-05T00:38:08;2.77;;;1.87;;
7669;SDS011;3877;42.562;27.636;2023-02-05T00:40:34;2.47;;;2.10;;
7669;SDS011;3877;42.562;27.636;2023-02-05T00:43:01;2.87;;;2.00;;
7669;SDS011;3877;42.562;27.636;2023-02-05T00:45:28;2.20;;;2.00;;
7669;SDS011;3877;42.562;27.636;2023-02-05T00:48:00;2.83;;;2.33;;
7669;SDS011;3877;42.562;27.636;2023-02-05T00:50:28;2.53;;;2.33;;
7669;SDS011;3877;42.562;27.636;2023-02-05T00:52:55;2.17;;;2.03;;
7669;SDS011;3877;42.562;27.636;2023-02-05T00:55:21;2.20;;;2.00;;
7669;SDS011;3877;42.562;27.636;2023-02-05T00:57:49;3.30;;;1.90;;
7669;SDS011;3877;42.562;27.636;2023-02-05T01:00:16;2.33;;;2.10;;
7669;SDS011;3877;42.562;27.636;2023-02-05T01:02:43;2.50;;;1.60;;
7669;SDS011;3877;42.562;27.636;2023-02-05T01:05:11;2.27;;;1.93;;
7669;SDS011;3877;42.562;27.636;2023-02-05T01:07:38;3.27;;;2.10;;
7669;SDS011;3877;42.562;27.636;2023-02-05T01:10:05;2.47;;;2.27;;
7669;SDS011;3877;42.562;27.636;2023-02-05T01:12:32;3.10;;;2.73;;
7669;SDS011;3877;42.562;27.636;2023-02-05T01:14:59;2.70;;;2.10;;
7669;SDS011;3877;42.562;27.636;2023-02-05T01:17:25;3.23;;;2.20;;
7669;SDS011;3877;42.562;27.636;2023-02-05T01:19:52;3.63;;;2.57;;
7669;SDS011;3877;42.562;27.636;2023-02-05T01:22:20;5.03;;;2.93;;
7669;SDS011;3877;42.562;27.636;2023-02-05T01:24:47;4.00;;;2.77;;
7669;SDS011;3877;42.562;27.636;2023-02-05T01:27:14;3.47;;;2.93;;
7669;SDS011;3877;42.562;27.636;2023-02-05T01:29:41;4.77;;;3.00;;
7669;SDS011;3877;42.562;27.636;2023-02-05T01:32:07;5.97;;;3.10;;
7669;SDS011;3877;42.562;27.636;2023-02-05T01:34:35;3.60;;;2.83;;
7669;SDS011;3877;42.562;27.636;2023-02-05T01:37:01;3.20;;;2.50;;
7669;SDS011;3877;42.562;27.636;2023-02-05T01:39:30;5.33;;;2.77;;
7669;SDS011;3877;42.562;27.636;2023-02-05T01:41:57;3.13;;;2.80;;
7669;SDS011;3877;42.562;27.636;2023-02-05T01:44:23;3.97;;;2.90;;
7669;SDS011;3877;42.562;27.636;2023-02-05T01:46:50;6.70;;;3.00;;
7669;SDS011;3877;42.562;27.636;2023-02-05T01:49:18;4.63;;;3.47;;
7669;SDS011;3877;42.562;27.636;2023-02-05T01:51:46;5.50;;;3.37;;
7669;SDS011;3877;42.562;27.636;2023-02-05T01:54:14;3.20;;;2.90;;
7669;SDS011;3877;42.562;27.636;2023-02-05T01:56:44;3.00;;;2.70;;
7669;SDS011;3877;42.562;27.636;2023-02-05T01:59:13;5.03;;;3.00;;
7669;SDS011;3877;42.562;27.636;2023-02-05T02:01:40;4.17;;;3.53;;
7669;SDS011;3877;42.562;27.636;2023-02-05T02:04:07;4.63;;;3.17;;
7669;SDS011;3877;42.562;27.636;2023-02-05T02:06:35;4.50;;;3.73;;
7669;SDS011;3877;42.562;27.636;2023-02-05T02:09:02;4.10;;;3.60;;
7669;SDS011;3877;42.562;27.636;2023-02-05T02:11:32;8.33;;;3.73;;
7669;SDS011;3877;42.562;27.636;2023-02-05T02:14:00;6.13;;;3.70;;
7669;SDS011;3877;42.562;27.636;2023-02-05T02:16:30;7.27;;;3.90;;
7669;SDS011;3877;42.562;27.636;2023-02-05T02:18:58;11.30;;;3.80;;
7669;SDS011;3877;42.562;27.636;2023-02-05T02:21:31;4.20;;;3.03;;
7669;SDS011;3877;42.562;27.636;2023-02-05T02:24:18;6.93;;;4.17;;
7669;SDS011;3877;42.562;27.636;2023-02-05T02:26:59;7.13;;;4.30;;
7669;SDS011;3877;42.562;27.636;2023-02-05T02:29:34;4.70;;;3.47;;
7669;SDS011;3877;42.562;27.636;2023-02-05T02:32:02;6.10;;;3.63;;
7669;SDS011;3877;42.562;27.636;2023-02-05T02:34:32;5.37;;;3.50;;
7669;SDS011;3877;42.562;27.636;2023-02-05T02:37:04;5.93;;;4.50;;
7669;SDS011;3877;42.562;27.636;2023-02-05T02:39:34;8.30;;;3.60;;
7669;SDS011;3877;42.562;27.636;2023-02-05T02:42:05;6.60;;;4.57;;
7669;SDS011;3877;42.562;27.636;2023-02-05T02:44:36;8.37;;;4.20;;
7669;SDS011;3877;42.562;27.636;2023-02-05T02:47:04;8.43;;;4.63;;
7669;SDS011;3877;42.562;27.636;2023-02-05T02:49:33;6.93;;;4.80;;
7669;SDS011;3877;42.562;27.636;2023-02-05T02:52:03;6.60;;;4.63;;
7669;SDS011;3877;42.562;27.636;2023-02-05T02:54:31;6.67;;;4.13;;
7669;SDS011;3877;42.562;27.636;2023-02-05T02:56:58;6.67;;;4.10;;
7669;SDS011;3877;42.562;27.636;2023-02-05T02:59:28;4.20;;;3.63;;
7669;SDS011;3877;42.562;27.636;2023-02-05T03:01:57;6.33;;;4.00;;
7669;SDS011;3877;42.562;27.636;2023-02-05T03:04:26;7.57;;;5.17;;
7669;SDS011;3877;42.562;27.636;2023-02-05T03:06:55;12.53;;;5.63;;
7669;SDS011;3877;42.562;27.636;2023-02-05T03:09:24;10.07;;;6.03;;
7669;SDS011;3877;42.562;27.636;2023-02-05T03:11:52;7.77;;;4.63;;
7669;SDS011;3877;42.562;27.636;2023-02-05T03:14:19;13.30;;;6.13;;
7669;SDS011;3877;42.562;27.636;2023-02-05T03:16:46;12.23;;;5.20;;
7669;SDS011;3877;42.562;27.636;2023-02-05T03:19:14;9.47;;;5.00;;
7669;SDS011;3877;42.562;27.636;2023-02-05T03:21:42;10.40;;;6.10;;
7669;SDS011;3877;42.562;27.636;2023-02-05T03:24:11;9.17;;;5.20;;
7669;SDS011;3877;42.562;27.636;2023-02-05T03:26:38;8.87;;;5.67;;
7669;SDS011;3877;42.562;27.636;2023-02-05T03:29:05;11.00;;;5.60;;
7669;SDS011;3877;42.562;27.636;2023-02-05T03:31:34;8.60;;;4.97;;
7669;SDS011;3877;42.562;27.636;2023-02-05T03:34:09;9.40;;;5.40;;
7669;SDS011;3877;42.562;27.636;2023-02-05T03:36:41;14.13;;;5.67;;
7669;SDS011;3877;42.562;27.636;2023-02-05T03:39:17;9.70;;;5.50;;
7669;SDS011;3877;42.562;27.636;2023-02-05T03:41:48;11.27;;;5.70;;
7669;SDS011;3877;42.562;27.636;2023-02-05T03:44:30;10.03;;;5.63;;
7669;SDS011;3877;42.562;27.636;2023-02-05T03:47:00;18.97;;;5.90;;
7669;SDS011;3877;42.562;27.636;2023-02-05T03:49:30;11.63;;;5.60;;
7669;SDS011;3877;42.562;27.636;2023-02-05T03:52:05;7.20;;;5.10;;
7669;SDS011;3877;42.562;27.636;2023-02-05T03:54:35;9.60;;;5.67;;
7669;SDS011;3877;42.562;27.636;2023-02-05T03:57:03;12.53;;;5.33;;
7669;SDS011;3877;42.562;27.636;2023-02-05T03:59:31;11.23;;;6.90;;
7669;SDS011;3877;42.562;27.636;2023-02-05T04:01:59;9.20;;;6.00;;
7669;SDS011;3877;42.562;27.636;2023-02-05T04:04:27;9.60;;;5.53;;
7669;SDS011;3877;42.562;27.636;2023-02-05T04:06:54;12.20;;;6.53;;
7669;SDS011;3877;42.562;27.636;2023-02-05T04:09:22;9.97;;;5.43;;
7669;SDS011;3877;42.562;27.636;2023-02-05T04:11:49;11.43;;;4.83;;
7669;SDS011;3877;42.562;27.636;2023-02-05T04:14:15;13.93;;;6.33;;
7669;SDS011;3877;42.562;27.636;2023-02-05T04:16:42;18.10;;;6.57;;
7669;SDS011;3877;42.562;27.636;2023-02-05T04:19:09;14.33;;;5.67;;
7669;SDS011;3877;42.562;27.636;2023-02-05T04:21:36;25.37;;;6.10;;
7669;SDS011;3877;42.562;27.636;2023-02-05T04:24:03;9.70;;;5.93;;
7669;SDS011;3877;42.562;27.636;2023-02-05T04:26:31;12.10;;;6.07;;
7669;SDS011;3877;42.562;27.636;2023-02-05T04:28:58;7.43;;;4.90;;
7669;SDS011;3877;42.562;27.636;2023-02-05T04:31:25;20.00;;;5.20;;
7669;SDS011;3877;42.562;27.636;2023-02-05T04:33:52;10.67;;;5.20;;
7669;SDS011;3877;42.562;27.636;2023-02-05T04:36:19;11.37;;;5.43;;
7669;SDS011;3877;42.562;27.636;2023-02-05T04:38:46;9.43;;;5.10;;
7669;SDS011;3877;42.562;27.636;2023-02-05T04:41:13;10.90;;;5.67;;
7669;SDS011;3877;42.562;27.636;2023-02-05T04:43:41;9.10;;;5.03;;
7669;SDS011;3877;42.562;27.636;2023-02-05T04:46:08;8.13;;;4.97;;
7669;SDS011;3877;42.562;27.636;2023-02-05T04:48:36;13.67;;;6.03;;
7669;SDS011;3877;42.562;27.636;2023-02-05T04:51:04;19.23;;;5.93;;
7669;SDS011;3877;42.562;27.636;2023-02-05T04:53:31;16.83;;;6.33;;
7669;SDS011;3877;42.562;27.636;2023-02-05T04:56:03;10.63;;;5.63;;
7669;SDS011;3877;42.562;27.636;2023-02-05T04:58:30;15.00;;;6.00;;
7669;SDS011;3877;42.562;27.636;2023-02-05T05:00:58;11.73;;;5.50;;
7669;SDS011;3877;42.562;27.636;2023-02-05T05:03:25;12.70;;;5.60;;
7669;SDS011;3877;42.562;27.636;2023-02-05T05:05:51;9.87;;;5.40;;
7669;SDS011;3877;42.562;27.636;2023-02-05T05:08:18;14.10;;;6.73;;
7669;SDS011;3877;42.562;27.636;2023-02-05T05:10:45;10.63;;;5.33;;
7669;SDS011;3877;42.562;27.636;2023-02-05T05:13:12;15.97;;;5.40;;
7669;SDS011;3877;42.562;27.636;2023-02-05T05:15:39;10.33;;;5.00;;
7669;SDS011;3877;42.562;27.636;2023-02-05T05:18:07;12.57;;;5.67;;
7669;SDS011;3877;42.562;27.636;2023-02-05T05:20:34;10.80;;;5.53;;
7669;SDS011;3877;42.562;27.636;2023-02-05T05:23:01;12.30;;;4.63;;
7669;SDS011;3877;42.562;27.636;2023-02-05T05:25:28;10.57;;;5.77;;
7669;SDS011;3877;42.562;27.636;2023-02-05T05:27:54;10.40;;;5.40;;
7669;SDS011;3877;42.562;27.636;2023-02-05T05:30:21;11.20;;;5.60;;
7669;SDS011;3877;42.562;27.636;2023-02-05T05:32:48;10.47;;;5.40;;
7669;SDS011;3877;42.562;27.636;2023-02-05T05:35:16;12.47;;;5.27;;
7669;SDS011;3877;42.562;27.636;2023-02-05T05:37:43;14.03;;;5.50;;
7669;SDS011;3877;42.562;27.636;2023-02-05T05:40:11;7.50;;;4.63;;
7669;SDS011;3877;42.562;27.636;2023-02-05T05:42:55;10.47;;;5.10;;
7669;SDS011;3877;42.562;27.636;2023-02-05T05:45:39;7.67;;;5.27;;
7669;SDS011;3877;42.562;27.636;2023-02-05T05:48:06;7.50;;;5.07;;
7669;SDS011;3877;42.562;27.636;2023-02-05T05:50:34;8.83;;;5.17;;
7669;SDS011;3877;42.562;27.636;2023-02-05T05:53:01;11.30;;;5.17;;
7669;SDS011;3877;42.562;27.636;2023-02-05T05:55:28;9.27;;;5.87;;
7669;SDS011;3877;42.562;27.636;2023-02-05T05:57:55;6.33;;;5.20;;
7669;SDS011;3877;42.562;27.636;2023-02-05T06:00:22;8.83;;;6.30;;
7669;SDS011;3877;42.562;27.636;2023-02-05T06:02:49;7.37;;;5.23;;
7669;SDS011;3877;42.562;27.636;2023-02-05T06:05:16;12.43;;;6.00;;
7669;SDS011;3877;42.562;27.636;2023-02-05T06:07:44;11.27;;;6.53;;
7669;SDS011;3877;42.562;27.636;2023-02-05T06:10:11;9.50;;;5.70;;
7669;SDS011;3877;42.562;27.636;2023-02-05T06:12:37;8.67;;;5.07;;
7669;SDS011;3877;42.562;27.636;2023-02-05T06:15:05;7.30;;;4.97;;
7669;SDS011;3877;42.562;27.636;2023-02-05T06:17:32;18.27;;;6.63;;
7669;SDS011;3877;42.562;27.636;2023-02-05T06:19:58;8.83;;;5.13;;
7669;SDS011;3877;42.562;27.636;2023-02-05T06:22:25;8.97;;;6.57;;
7669;SDS011;3877;42.562;27.636;2023-02-05T06:24:54;6.73;;;5.50;;
7669;SDS011;3877;42.562;27.636;2023-02-05T06:27:20;8.47;;;5.30;;
7669;SDS011;3877;42.562;27.636;2023-02-05T06:29:47;9.43;;;5.17;;
7669;SDS011;3877;42.562;27.636;2023-02-05T06:32:14;9.10;;;5.43;;
7669;SDS011;3877;42.562;27.636;2023-02-05T06:34:41;18.00;;;5.63;;
7669;SDS011;3877;42.562;27.636;2023-02-05T06:37:08;10.00;;;5.47;;
7669;SDS011;3877;42.562;27.636;2023-02-05T06:39:34;14.07;;;5.93;;
7669;SDS011;3877;42.562;27.636;2023-02-05T06:42:03;9.50;;;5.30;;
7669;SDS011;3877;42.562;27.636;2023-02-05T06:44:30;14.63;;;5.80;;
7669;SDS011;3877;42.562;27.636;2023-02-05T06:46:57;17.03;;;6.17;;
7669;SDS011;3877;42.562;27.636;2023-02-05T06:49:24;11.97;;;4.97;;
7669;SDS011;3877;42.562;27.636;2023-02-05T06:51:51;8.23;;;5.53;;
7669;SDS011;3877;42.562;27.636;2023-02-05T06:54:17;10.43;;;5.43;;
7669;SDS011;3877;42.562;27.636;2023-02-05T06:56:44;11.13;;;5.57;;
7669;SDS011;3877;42.562;27.636;2023-02-05T06:59:13;12.37;;;5.93;;
7669;SDS011;3877;42.562;27.636;2023-02-05T07:01:40;14.43;;;6.13;;
7669;SDS011;3877;42.562;27.636;2023-02-05T07:04:06;10.77;;;6.33;;
7669;SDS011;3877;42.562;27.636;2023-02-05T07:06:33;20.07;;;6.07;;
7669;SDS011;3877;42.562;27.636;2023-02-05T07:09:00;8.50;;;5.13;;
7669;SDS011;3877;42.562;27.636;2023-02-05T07:11:27;7.27;;;5.07;;
7669;SDS011;3877;42.562;27.636;2023-02-05T07:13:56;6.93;;;4.93;;
7669;SDS011;3877;42.562;27.636;2023-02-05T07:16:27;9.73;;;4.90;;
7669;SDS011;3877;42.562;27.636;2023-02-05T07:18:54;9.27;;;4.87;;
7669;SDS011;3877;42.562;27.636;2023-02-05T07:21:21;6.13;;;4.00;;
7669;SDS011;3877;42.562;27.636;2023-02-05T07:23:48;8.50;;;5.00;;
7669;SDS011;3877;42.562;27.636;2023-02-05T07:26:16;5.90;;;4.57;;
7669;SDS011;3877;42.562;27.636;2023-02-05T07:28:43;10.43;;;4.57;;
7669;SDS011;3877;42.562;27.636;2023-02-05T07:31:11;10.43;;;5.43;;
7669;SDS011;3877;42.562;27.636;2023-02-05T07:33:40;9.50;;;6.47;;
7669;SDS011;3877;42.562;27.636;2023-02-05T07:36:09;9.50;;;4.63;;
7669;SDS011;3877;42.562;27.636;2023-02-05T07:38:36;9.37;;;5.10;;
7669;SDS011;3877;42.562;27.636;2023-02-05T07:41:03;6.83;;;4.30;;
7669;SDS011;3877;42.562;27.636;2023-02-05T07:43:30;9.77;;;4.07;;
7669;SDS011;3877;42.562;27.636;2023-02-05T07:45:57;8.70;;;5.07;;
7669;SDS011;3877;42.562;27.636;2023-02-05T07:48:25;5.90;;;3.83;;
7669;SDS011;3877;42.562;27.636;2023-02-05T07:50:55;9.97;;;5.77;;
7669;SDS011;3877;42.562;27.636;2023-02-05T07:53:22;6.97;;;4.77;;
7669;SDS011;3877;42.562;27.636;2023-02-05T07:55:48;6.43;;;4.77;;
7669;SDS011;3877;42.562;27.636;2023-02-05T07:58:15;10.67;;;5.33;;
7669;SDS011;3877;42.562;27.636;2023-02-05T08:00:42;13.77;;;5.10;;
7669;SDS011;3877;42.562;27.636;2023-02-05T08:03:09;6.50;;;3.53;;
7669;SDS011;3877;42.562;27.636;2023-02-05T08:05:36;7.93;;;4.60;;
7669;SDS011;3877;42.562;27.636;2023-02-05T08:08:05;6.93;;;3.67;;
7669;SDS011;3877;42.562;27.636;2023-02-05T08:10:32;8.60;;;4.10;;
7669;SDS011;3877;42.562;27.636;2023-02-05T08:12:59;10.57;;;4.37;;
7669;SDS011;3877;42.562;27.636;2023-02-05T08:15:26;9.07;;;4.43;;
7669;SDS011;3877;42.562;27.636;2023-02-05T08:17:53;12.60;;;4.20;;
7669;SDS011;3877;42.562;27.636;2023-02-05T08:20:20;12.20;;;4.83;;
7669;SDS011;3877;42.562;27.636;2023-02-05T08:22:46;5.90;;;4.00;;
7669;SDS011;3877;42.562;27.636;2023-02-05T08:25:15;7.70;;;3.90;;
7669;SDS011;3877;42.562;27.636;2023-02-05T08:27:42;9.93;;;5.03;;
7669;SDS011;3877;42.562;27.636;2023-02-05T08:30:11;8.20;;;4.97;;
7669;SDS011;3877;42.562;27.636;2023-02-05T08:32:38;11.27;;;4.60;;
7669;SDS011;3877;42.562;27.636;2023-02-05T08:35:05;9.63;;;4.47;;
7669;SDS011;3877;42.562;27.636;2023-02-05T08:37:32;10.20;;;4.70;;
7669;SDS011;3877;42.562;27.636;2023-02-05T08:39:59;6.77;;;3.60;;
7669;SDS011;3877;42.562;27.636;2023-02-05T08:42:27;5.93;;;4.23;;
7669;SDS011;3877;42.562;27.636;2023-02-05T08:44:54;5.47;;;3.97;;
7669;SDS011;3877;42.562;27.636;2023-02-05T08:47:22;5.53;;;3.93;;
7669;SDS011;3877;42.562;27.636;2023-02-05T08:49:49;7.67;;;3.67;;
7669;SDS011;3877;42.562;27.636;2023-02-05T08:52:16;3.93;;;3.33;;
7669;SDS011;3877;42.562;27.636;2023-02-05T08:54:43;4.20;;;3.33;;
7669;SDS011;3877;42.562;27.636;2023-02-05T08:57:09;7.57;;;3.57;;
7669;SDS011;3877;42.562;27.636;2023-02-05T08:59:38;12.13;;;4.10;;
7669;SDS011;3877;42.562;27.636;2023-02-05T09:02:05;7.38;;;4.55;;
7669;SDS011;3877;42.562;27.636;2023-02-05T09:04:32;7.77;;;4.10;;
7669;SDS011;3877;42.562;27.636;2023-02-05T09:06:59;7.73;;;3.77;;
7669;SDS011;3877;42.562;27.636;2023-02-05T09:09:25;11.27;;;5.20;;
7669;SDS011;3877;42.562;27.636;2023-02-05T09:11:52;10.47;;;4.57;;
7669;SDS011;3877;42.562;27.636;2023-02-05T09:14:19;7.90;;;3.43;;
7669;SDS011;3877;42.562;27.636;2023-02-05T09:16:48;6.87;;;4.03;;
7669;SDS011;3877;42.562;27.636;2023-02-05T09:19:14;9.10;;;3.63;;
7669;SDS011;3877;42.562;27.636;2023-02-05T09:21:41;5.93;;;3.60;;
7669;SDS011;3877;42.562;27.636;2023-02-05T09:24:08;6.33;;;3.57;;
7669;SDS011;3877;42.562;27.636;2023-02-05T09:26:35;9.67;;;4.17;;
7669;SDS011;3877;42.562;27.636;2023-02-05T09:29:02;12.47;;;4.73;;
7669;SDS011;3877;42.562;27.636;2023-02-05T09:31:29;4.83;;;3.10;;
7669;SDS011;3877;42.562;27.636;2023-02-05T09:33:57;10.57;;;3.70;;
7669;SDS011;3877;42.562;27.636;2023-02-05T09:36:24;6.73;;;3.67;;
7669;SDS011;3877;42.562;27.636;2023-02-05T09:38:51;8.73;;;3.47;;
7669;SDS011;3877;42.562;27.636;2023-02-05T09:41:22;12.23;;;4.20;;
7669;SDS011;3877;42.562;27.636;2023-02-05T09:43:53;8.80;;;3.67;;
7669;SDS011;3877;42.562;27.636;2023-02-05T09:46:24;6.93;;;2.90;;
7669;SDS011;3877;42.562;27.636;2023-02-05T09:48:53;4.13;;;2.53;;
7669;SDS011;3877;42.562;27.636;2023-02-05T09:51:24;3.70;;;2.73;;
7669;SDS011;3877;42.562;27.636;2023-02-05T09:53:56;4.33;;;2.93;;
7669;SDS011;3877;42.562;27.636;2023-02-05T09:56:24;5.87;;;2.90;;
7669;SDS011;3877;42.562;27.636;2023-02-05T09:58:52;4.80;;;3.17;;
7669;SDS011;3877;42.562;27.636;2023-02-05T10:01:21;3.10;;;1.90;;
7669;SDS011;3877;42.562;27.636;2023-02-05T10:03:50;7.20;;;2.20;;
7669;SDS011;3877;42.562;27.636;2023-02-05T10:06:38;7.30;;;2.20;;
7669;SDS011;3877;42.562;27.636;2023-02-05T10:09:08;3.73;;;2.37;;
7669;SDS011;3877;42.562;27.636;2023-02-05T10:11:39;3.60;;;2.30;;
7669;SDS011;3877;42.562;27.636;2023-02-05T10:14:10;4.00;;;2.40;;
7669;SDS011;3877;42.562;27.636;2023-02-05T10:16:41;4.93;;;2.10;;
7669;SDS011;3877;42.562;27.636;2023-02-05T10:19:22;6.50;;;2.10;;
7669;SDS011;3877;42.562;27.636;2023-02-05T10:21:58;5.30;;;2.60;;
7669;SDS011;3877;42.562;27.636;2023-02-05T10:24:37;4.63;;;2.27;;
7669;SDS011;3877;42.562;27.636;2023-02-05T10:27:11;5.83;;;2.10;;
7669;SDS011;3877;42.562;27.636;2023-02-05T10:29:41;5.30;;;2.63;;
7669;SDS011;3877;42.562;27.636;2023-02-05T10:32:16;7.73;;;2.57;;
7669;SDS011;3877;42.562;27.636;2023-02-05T10:34:47;3.53;;;2.30;;
7669;SDS011;3877;42.562;27.636;2023-02-05T10:37:18;4.53;;;2.30;;
7669;SDS011;3877;42.562;27.636;2023-02-05T10:39:46;4.03;;;2.23;;
7669;SDS011;3877;42.562;27.636;2023-02-05T10:42:18;5.13;;;2.47;;
7669;SDS011;3877;42.562;27.636;2023-02-05T10:44:48;2.77;;;2.23;;
7669;SDS011;3877;42.562;27.636;2023-02-05T10:47:17;10.10;;;3.13;;
7669;SDS011;3877;42.562;27.636;2023-02-05T10:49:45;3.83;;;1.90;;
7669;SDS011;3877;42.562;27.636;2023-02-05T10:52:14;3.57;;;1.80;;
7669;SDS011;3877;42.562;27.636;2023-02-05T10:54:43;3.83;;;1.90;;
7669;SDS011;3877;42.562;27.636;2023-02-05T10:57:11;4.70;;;2.20;;
7669;SDS011;3877;42.562;27.636;2023-02-05T10:59:40;8.40;;;2.87;;
7669;SDS011;3877;42.562;27.636;2023-02-05T11:02:11;5.67;;;2.43;;
7669;SDS011;3877;42.562;27.636;2023-02-05T11:04:40;6.20;;;2.70;;
7669;SDS011;3877;42.562;27.636;2023-02-05T11:07:08;5.27;;;3.10;;
7669;SDS011;3877;42.562;27.636;2023-02-05T11:09:37;5.73;;;2.67;;
7669;SDS011;3877;42.562;27.636;2023-02-05T11:12:15;3.73;;;2.50;;
7669;SDS011;3877;42.562;27.636;2023-02-05T11:14:43;7.97;;;2.33;;
7669;SDS011;3877;42.562;27.636;2023-02-05T11:17:18;7.37;;;2.20;;
7669;SDS011;3877;42.562;27.636;2023-02-05T11:19:52;8.00;;;2.30;;
7669;SDS011;3877;42.562;27.636;2023-02-05T11:22:24;3.03;;;2.33;;
7669;SDS011;3877;42.562;27.636;2023-02-05T11:24:51;6.93;;;2.57;;
7669;SDS011;3877;42.562;27.636;2023-02-05T11:27:31;2.83;;;1.90;;
7669;SDS011;3877;42.562;27.636;2023-02-05T11:29:58;2.10;;;1.87;;
7669;SDS011;3877;42.562;27.636;2023-02-05T11:32:42;4.67;;;2.57;;
7669;SDS011;3877;42.562;27.636;2023-02-05T11:35:15;6.57;;;2.60;;
7669;SDS011;3877;42.562;27.636;2023-02-05T11:37:42;6.03;;;2.67;;
7669;SDS011;3877;42.562;27.636;2023-02-05T11:40:16;5.23;;;2.70;;
7669;SDS011;3877;42.562;27.636;2023-02-05T11:42:56;2.47;;;2.10;;
7669;SDS011;3877;42.562;27.636;2023-02-05T11:45:24;4.77;;;2.47;;
7669;SDS011;3877;42.562;27.636;2023-02-05T11:47:51;4.60;;;2.30;;
7669;SDS011;3877;42.562;27.636;2023-02-05T11:50:20;6.67;;;2.80;;
7669;SDS011;3877;42.562;27.636;2023-02-05T11:52:48;5.77;;;2.63;;
7669;SDS011;3877;42.562;27.636;2023-02-05T11:55:22;9.77;;;2.77;;
7669;SDS011;3877;42.562;27.636;2023-02-05T11:57:53;6.90;;;2.67;;
7669;SDS011;3877;42.562;27.636;2023-02-05T12:00:23;8.17;;;3.90;;
7669;SDS011;3877;42.562;27.636;2023-02-05T12:02:50;7.40;;;3.37;;
7669;SDS011;3877;42.562;27.636;2023-02-05T12:05:28;9.50;;;3.37;;
7669;SDS011;3877;42.562;27.636;2023-02-05T12:07:57;9.40;;;3.27;;
7669;SDS011;3877;42.562;27.636;2023-02-05T12:10:27;6.30;;;3.07;;
7669;SDS011;3877;42.562;27.636;2023-02-05T12:13:01;6.33;;;2.90;;
7669;SDS011;3877;42.562;27.636;2023-02-05T12:15:30;4.17;;;2.27;;
7669;SDS011;3877;42.562;27.636;2023-02-05T12:18:01;8.87;;;2.80;;
7669;SDS011;3877;42.562;27.636;2023-02-05T12:20:31;5.43;;;2.77;;
7669;SDS011;3877;42.562;27.636;2023-02-05T12:23:08;4.73;;;2.70;;
7669;SDS011;3877;42.562;27.636;2023-02-05T12:25:39;5.03;;;2.10;;
7669;SDS011;3877;42.562;27.636;2023-02-05T12:28:16;6.33;;;2.60;;
7669;SDS011;3877;42.562;27.636;2023-02-05T12:30:49;7.07;;;3.13;;
7669;SDS011;3877;42.562;27.636;2023-02-05T12:33:26;3.37;;;2.60;;
7669;SDS011;3877;42.562;27.636;2023-02-05T12:35:58;9.17;;;3.20;;
7669;SDS011;3877;42.562;27.636;2023-02-05T12:38:32;6.13;;;3.17;;
7669;SDS011;3877;42.562;27.636;2023-02-05T12:41:06;4.10;;;2.47;;
7669;SDS011;3877;42.562;27.636;2023-02-05T12:43:38;4.33;;;2.43;;
7669;SDS011;3877;42.562;27.636;2023-02-05T12:46:12;10.13;;;3.10;;
7669;SDS011;3877;42.562;27.636;2023-02-05T12:48:45;3.73;;;2.93;;
7669;SDS011;3877;42.562;27.636;2023-02-05T12:51:21;24.70;;;3.70;;
7669;SDS011;3877;42.562;27.636;2023-02-05T12:54:07;6.37;;;2.67;;
7669;SDS011;3877;42.562;27.636;2023-02-05T12:59:25;2.80;;;2.03;;
7669;SDS011;3877;42.562;27.636;2023-02-05T13:01:56;12.37;;;3.50;;
7669;SDS011;3877;42.562;27.636;2023-02-05T13:04:26;2.70;;;2.03;;
7669;SDS011;3877;42.562;27.636;2023-02-05T13:06:55;4.73;;;2.73;;
7669;SDS011;3877;42.562;27.636;2023-02-05T13:09:24;6.27;;;2.43;;
7669;SDS011;3877;42.562;27.636;2023-02-05T13:11:55;4.73;;;2.83;;
7669;SDS011;3877;42.562;27.636;2023-02-05T13:14:25;4.53;;;3.10;;
7669;SDS011;3877;42.562;27.636;2023-02-05T13:16:55;15.63;;;3.67;;
7669;SDS011;3877;42.562;27.636;2023-02-05T13:19:25;6.83;;;2.97;;
7669;SDS011;3877;42.562;27.636;2023-02-05T13:21:54;5.07;;;2.90;;
7669;SDS011;3877;42.562;27.636;2023-02-05T13:24:39;8.17;;;3.00;;
7669;SDS011;3877;42.562;27.636;2023-02-05T13:27:26;5.80;;;3.13;;
7669;SDS011;3877;42.562;27.636;2023-02-05T13:30:13;6.33;;;2.67;;
7669;SDS011;3877;42.562;27.636;2023-02-05T13:32:41;6.33;;;2.70;;
7669;SDS011;3877;42.562;27.636;2023-02-05T13:35:09;4.80;;;2.93;;
7669;SDS011;3877;42.562;27.636;2023-02-05T13:37:42;14.67;;;3.10;;
7669;SDS011;3877;42.562;27.636;2023-02-05T13:40:21;10.60;;;3.03;;
7669;SDS011;3877;42.562;27.636;2023-02-05T13:43:01;5.23;;;3.37;;
7669;SDS011;3877;42.562;27.636;2023-02-05T13:48:39;6.17;;;3.17;;
7669;SDS011;3877;42.562;27.636;2023-02-05T13:54:10;10.67;;;4.37;;
7669;SDS011;3877;42.562;27.636;2023-02-05T13:56:50;8.33;;;2.90;;
7669;SDS011;3877;42.562;27.636;2023-02-05T13:59:21;8.60;;;3.40;;
7669;SDS011;3877;42.562;27.636;2023-02-05T14:01:52;10.07;;;2.90;;
7669;SDS011;3877;42.562;27.636;2023-02-05T14:04:24;7.27;;;2.90;;
7669;SDS011;3877;42.562;27.636;2023-02-05T14:06:58;4.80;;;2.70;;
7669;SDS011;3877;42.562;27.636;2023-02-05T14:09:29;6.30;;;3.20;;
7669;SDS011;3877;42.562;27.636;2023-02-05T14:11:57;14.30;;;3.53;;
7669;SDS011;3877;42.562;27.636;2023-02-05T14:14:29;5.83;;;2.60;;
7669;SDS011;3877;42.562;27.636;2023-02-05T14:16:57;4.13;;;2.90;;
7669;SDS011;3877;42.562;27.636;2023-02-05T14:19:48;7.93;;;2.83;;
7669;SDS011;3877;42.562;27.636;2023-02-05T14:22:41;8.83;;;2.93;;
7669;SDS011;3877;42.562;27.636;2023-02-05T14:27:54;8.90;;;3.50;;
7669;SDS011;3877;42.562;27.636;2023-02-05T14:30:32;4.40;;;2.87;;
7669;SDS011;3877;42.562;27.636;2023-02-05T14:33:05;4.87;;;2.93;;
7669;SDS011;3877;42.562;27.636;2023-02-05T14:35:55;8.57;;;3.30;;
7669;SDS011;3877;42.562;27.636;2023-02-05T14:38:23;6.33;;;3.07;;
7669;SDS011;3877;42.562;27.636;2023-02-05T14:41:01;3.30;;;2.60;;
7669;SDS011;3877;42.562;27.636;2023-02-05T14:43:30;4.23;;;2.80;;
7669;SDS011;3877;42.562;27.636;2023-02-05T14:45:58;8.73;;;3.57;;
7669;SDS011;3877;42.562;27.636;2023-02-05T14:48:28;5.87;;;3.10;;
7669;SDS011;3877;42.562;27.636;2023-02-05T14:51:01;10.10;;;3.87;;
7669;SDS011;3877;42.562;27.636;2023-02-05T14:53:28;6.87;;;3.27;;
7669;SDS011;3877;42.562;27.636;2023-02-05T14:55:55;6.83;;;3.30;;
7669;SDS011;3877;42.562;27.636;2023-02-05T14:58:24;5.73;;;3.20;;
7669;SDS011;3877;42.562;27.636;2023-02-05T15:00:52;14.73;;;3.20;;
7669;SDS011;3877;42.562;27.636;2023-02-05T15:03:39;9.63;;;3.53;;
7669;SDS011;3877;42.562;27.636;2023-02-05T15:06:12;11.50;;;4.40;;
7669;SDS011;3877;42.562;27.636;2023-02-05T15:08:41;3.93;;;3.00;;
7669;SDS011;3877;42.562;27.636;2023-02-05T15:11:11;8.33;;;3.30;;
7669;SDS011;3877;42.562;27.636;2023-02-05T15:13:39;3.80;;;2.20;;
7669;SDS011;3877;42.562;27.636;2023-02-05T15:16:07;4.97;;;2.90;;
7669;SDS011;3877;42.562;27.636;2023-02-05T15:18:42;8.40;;;3.20;;
7669;SDS011;3877;42.562;27.636;2023-02-05T15:21:12;10.33;;;2.93;;
7669;SDS011;3877;42.562;27.636;2023-02-05T15:23:40;5.00;;;3.00;;